Terminal Aerodrome Forecast
Issued by NWS Sioux Falls, SD

Home | Current Version | Previous Version | Text Only | Print | Product List | Glossary Off
Versions: 1 2 3 4 5 6 7 8 9 10 11 12 13 14 15

000
FTUS43 KFSD 260520
TAFHON
TAF
KHON 260520Z 2606/2706 36015KT 3SM -SN BR OVC030
     FM260800 35012KT P6SM OVC012
     FM261600 36012KT P6SM SCT015 OVC025=

USA.gov is the U.S. government's official web portal to all federal, state and local government web resources and services.